EmailTwitter


Observations de surface / France / LFPO (07149)

Régions: Québec | Canada | États-Unis | Europe | France | UK | Ailleurs
Station
Affichage
Infos & localisation pour LFPO (07149) | Aide pour décoder les METARs

Observations prises le 2018-06-18 à 07H00 UTC à PARIS/ORLY, FR (LFPO)

Etat du ciel: partiellement nuageux.

Température: 18.0 Celsius

Point de rosée: 14.0 Celsius

Humidité relative: 77%

Vents: Sud-ouest à 15 km/h ou 8 noeuds.

Pression au niveau moyen de la mer: 102.20 kilopascals.

Visibilité horizontale: 6.21 milles terrestres ou 9.94 kilomètres.

Hauteur du plafond: 792 mètres ( 2600 pieds ).

Observation METAR:

LFPO 180700Z 24008KT 210V270 9999 FEW016 BKN026 18/14 Q1022 NOSIG=